sensor_id;sensor_type;location;lat;lon;timestamp;pressure;altitude;pressure_sealevel;temperature;humidity
17635;BME280;8936;49.010;12.120;2023-04-08T00:00:36;97929.34;;;10.27;82.77
17635;BME280;8936;49.010;12.120;2023-04-08T00:03:04;97941.94;;;10.32;82.72
17635;BME280;8936;49.010;12.120;2023-04-08T00:05:30;97935.03;;;10.36;81.31
17635;BME280;8936;49.010;12.120;2023-04-08T00:07:57;97929.69;;;10.36;81.70
17635;BME280;8936;49.010;12.120;2023-04-08T00:10:23;97932.28;;;10.26;80.66
17635;BME280;8936;49.010;12.120;2023-04-08T00:12:50;97936.59;;;10.27;81.88
17635;BME280;8936;49.010;12.120;2023-04-08T00:15:17;97932.59;;;10.29;82.12
17635;BME280;8936;49.010;12.120;2023-04-08T00:17:43;97933.34;;;10.25;82.13
17635;BME280;8936;49.010;12.120;2023-04-08T00:20:11;97938.69;;;10.25;81.88
17635;BME280;8936;49.010;12.120;2023-04-08T00:22:38;97939.50;;;10.25;81.30
17635;BME280;8936;49.010;12.120;2023-04-08T00:25:04;97939.72;;;10.19;81.19
17635;BME280;8936;49.010;12.120;2023-04-08T00:27:33;97935.50;;;10.23;81.26
17635;BME280;8936;49.010;12.120;2023-04-08T00:29:59;97937.88;;;10.19;80.99
17635;BME280;8936;49.010;12.120;2023-04-08T00:32:26;97936.31;;;10.28;79.50
17635;BME280;8936;49.010;12.120;2023-04-08T00:34:53;97936.59;;;10.32;79.19
17635;BME280;8936;49.010;12.120;2023-04-08T00:37:21;97944.59;;;10.32;78.70
17635;BME280;8936;49.010;12.120;2023-04-08T00:39:49;97948.59;;;10.29;78.03
17635;BME280;8936;49.010;12.120;2023-04-08T00:42:15;97951.50;;;10.28;78.32
17635;BME280;8936;49.010;12.120;2023-04-08T00:44:42;97947.72;;;10.19;77.71
17635;BME280;8936;49.010;12.120;2023-04-08T00:47:10;97953.34;;;10.17;77.90
17635;BME280;8936;49.010;12.120;2023-04-08T00:49:37;97956.25;;;10.16;77.96
17635;BME280;8936;49.010;12.120;2023-04-08T00:52:03;97956.81;;;10.18;78.38
17635;BME280;8936;49.010;12.120;2023-04-08T00:54:31;97956.16;;;10.06;77.30
17635;BME280;8936;49.010;12.120;2023-04-08T00:56:58;97956.34;;;9.89;78.83
17635;BME280;8936;49.010;12.120;2023-04-08T00:59:25;97953.47;;;10.01;80.63
17635;BME280;8936;49.010;12.120;2023-04-08T01:01:54;97956.16;;;10.06;80.03
17635;BME280;8936;49.010;12.120;2023-04-08T01:04:23;97965.06;;;10.16;79.56
17635;BME280;8936;49.010;12.120;2023-04-08T01:06:55;97958.97;;;10.21;77.82
17635;BME280;8936;49.010;12.120;2023-04-08T01:09:22;97956.03;;;10.22;77.36
17635;BME280;8936;49.010;12.120;2023-04-08T01:11:50;97950.16;;;10.25;77.03
17635;BME280;8936;49.010;12.120;2023-04-08T01:14:19;97957.25;;;10.10;77.90
17635;BME280;8936;49.010;12.120;2023-04-08T01:16:45;97952.66;;;9.95;78.30
17635;BME280;8936;49.010;12.120;2023-04-08T01:19:17;97957.91;;;9.85;79.48
17635;BME280;8936;49.010;12.120;2023-04-08T01:21:47;97949.97;;;9.95;80.52
17635;BME280;8936;49.010;12.120;2023-04-08T01:24:15;97954.06;;;10.08;79.60
17635;BME280;8936;49.010;12.120;2023-04-08T01:26:44;97953.88;;;10.19;77.96
17635;BME280;8936;49.010;12.120;2023-04-08T01:29:11;97948.28;;;10.21;76.46
17635;BME280;8936;49.010;12.120;2023-04-08T01:31:39;97952.56;;;10.22;77.08
17635;BME280;8936;49.010;12.120;2023-04-08T01:34:06;97954.97;;;10.23;76.90
17635;BME280;8936;49.010;12.120;2023-04-08T01:36:33;97945.38;;;10.27;75.99
17635;BME280;8936;49.010;12.120;2023-04-08T01:39:00;97947.50;;;10.30;76.24
17635;BME280;8936;49.010;12.120;2023-04-08T01:41:29;97943.78;;;10.32;75.29
17635;BME280;8936;49.010;12.120;2023-04-08T01:43:58;97948.88;;;10.33;75.19
17635;BME280;8936;49.010;12.120;2023-04-08T01:46:24;97944.59;;;10.32;74.70
17635;BME280;8936;49.010;12.120;2023-04-08T01:48:52;97952.81;;;10.20;73.79
17635;BME280;8936;49.010;12.120;2023-04-08T01:51:19;97955.00;;;10.28;74.51
17635;BME280;8936;49.010;12.120;2023-04-08T01:53:47;97944.31;;;10.28;73.93
17635;BME280;8936;49.010;12.120;2023-04-08T01:56:13;97946.19;;;10.28;73.52
17635;BME280;8936;49.010;12.120;2023-04-08T01:58:41;97952.00;;;10.20;73.96
17635;BME280;8936;49.010;12.120;2023-04-08T02:01:11;97939.72;;;10.19;73.87
17635;BME280;8936;49.010;12.120;2023-04-08T02:03:40;97945.88;;;10.19;73.70
17635;BME280;8936;49.010;12.120;2023-04-08T02:06:07;97952.44;;;10.07;71.83
17635;BME280;8936;49.010;12.120;2023-04-08T02:08:34;97952.38;;;9.97;74.36
17635;BME280;8936;49.010;12.120;2023-04-08T02:11:01;97955.09;;;10.02;75.38
17635;BME280;8936;49.010;12.120;2023-04-08T02:13:27;97957.78;;;10.07;74.48
17635;BME280;8936;49.010;12.120;2023-04-08T02:15:56;97953.41;;;9.91;74.44
17635;BME280;8936;49.010;12.120;2023-04-08T02:18:24;97952.56;;;9.80;75.85
17635;BME280;8936;49.010;12.120;2023-04-08T02:20:52;97954.50;;;9.90;76.80
17635;BME280;8936;49.010;12.120;2023-04-08T02:23:23;97952.66;;;10.00;75.74
17635;BME280;8936;49.010;12.120;2023-04-08T02:25:50;97956.72;;;10.08;74.10
17635;BME280;8936;49.010;12.120;2023-04-08T02:28:18;97955.41;;;10.10;73.90
17635;BME280;8936;49.010;12.120;2023-04-08T02:30:47;97951.63;;;10.01;74.18
17635;BME280;8936;49.010;12.120;2023-04-08T02:33:14;97953.25;;;10.07;74.56
17635;BME280;8936;49.010;12.120;2023-04-08T02:35:43;97950.31;;;10.09;73.63
17635;BME280;8936;49.010;12.120;2023-04-08T02:38:09;97952.97;;;10.09;73.46
17635;BME280;8936;49.010;12.120;2023-04-08T02:40:36;97957.69;;;9.92;72.14
17635;BME280;8936;49.010;12.120;2023-04-08T02:43:02;97955.53;;;9.89;74.76
17635;BME280;8936;49.010;12.120;2023-04-08T02:45:29;97953.88;;;9.77;74.85
17635;BME280;8936;49.010;12.120;2023-04-08T02:47:56;97958.59;;;9.65;77.45
17635;BME280;8936;49.010;12.120;2023-04-08T02:50:22;97961.50;;;9.64;78.09
17635;BME280;8936;49.010;12.120;2023-04-08T02:52:50;97954.63;;;9.41;79.25
17635;BME280;8936;49.010;12.120;2023-04-08T02:55:17;97961.53;;;9.05;80.16
17635;BME280;8936;49.010;12.120;2023-04-08T02:57:43;97962.06;;;9.07;82.50
17635;BME280;8936;49.010;12.120;2023-04-08T03:00:10;97960.81;;;9.15;83.22
17635;BME280;8936;49.010;12.120;2023-04-08T03:02:36;97965.13;;;9.21;81.97
17635;BME280;8936;49.010;12.120;2023-04-08T03:05:03;97956.44;;;9.31;81.66
17635;BME280;8936;49.010;12.120;2023-04-08T03:07:30;97955.34;;;9.32;82.66
17635;BME280;8936;49.010;12.120;2023-04-08T03:09:58;97956.44;;;9.31;82.51
17635;BME280;8936;49.010;12.120;2023-04-08T03:12:24;97951.75;;;9.43;81.56
17635;BME280;8936;49.010;12.120;2023-04-08T03:14:52;97961.16;;;9.55;80.92
17635;BME280;8936;49.010;12.120;2023-04-08T03:17:18;97967.22;;;9.46;80.59
17635;BME280;8936;49.010;12.120;2023-04-08T03:19:45;97962.09;;;9.39;81.43
17635;BME280;8936;49.010;12.120;2023-04-08T03:22:11;97957.19;;;9.26;81.14
17635;BME280;8936;49.010;12.120;2023-04-08T03:24:37;97958.78;;;9.27;82.85
17635;BME280;8936;49.010;12.120;2023-04-08T03:27:05;97960.44;;;9.33;82.66
17635;BME280;8936;49.010;12.120;2023-04-08T03:29:32;97960.72;;;9.05;83.36
17635;BME280;8936;49.010;12.120;2023-04-08T03:31:59;97967.69;;;9.11;85.21
17635;BME280;8936;49.010;12.120;2023-04-08T03:34:25;97960.13;;;9.25;84.37
17635;BME280;8936;49.010;12.120;2023-04-08T03:36:51;97968.72;;;9.05;84.05
17635;BME280;8936;49.010;12.120;2023-04-08T03:39:18;97965.03;;;8.84;85.04
17635;BME280;8936;49.010;12.120;2023-04-08T03:41:44;97980.16;;;9.05;86.49
17635;BME280;8936;49.010;12.120;2023-04-08T03:44:12;97968.41;;;9.01;86.34
17635;BME280;8936;49.010;12.120;2023-04-08T03:46:38;97967.44;;;8.86;86.58
17635;BME280;8936;49.010;12.120;2023-04-08T03:49:05;97972.41;;;9.04;85.80
17635;BME280;8936;49.010;12.120;2023-04-08T03:51:31;97974.31;;;9.03;84.80
17635;BME280;8936;49.010;12.120;2023-04-08T03:53:58;97965.94;;;9.21;84.17
17635;BME280;8936;49.010;12.120;2023-04-08T03:56:24;97970.47;;;9.21;83.09
17635;BME280;8936;49.010;12.120;2023-04-08T03:58:50;97979.22;;;8.90;84.56
17635;BME280;8936;49.010;12.120;2023-04-08T04:01:18;97977.97;;;9.24;83.42
17635;BME280;8936;49.010;12.120;2023-04-08T04:03:45;97972.97;;;9.33;83.15
17635;BME280;8936;49.010;12.120;2023-04-08T04:06:11;97990.06;;;9.37;82.17
17635;BME280;8936;49.010;12.120;2023-04-08T04:08:37;97979.72;;;9.40;81.76
17635;BME280;8936;49.010;12.120;2023-04-08T04:11:04;97983.94;;;9.36;82.55
17635;BME280;8936;49.010;12.120;2023-04-08T04:13:30;97990.66;;;9.44;82.44
17635;BME280;8936;49.010;12.120;2023-04-08T04:15:56;97996.09;;;9.27;83.00
17635;BME280;8936;49.010;12.120;2023-04-08T04:18:24;97994.38;;;8.89;85.86
17635;BME280;8936;49.010;12.120;2023-04-08T04:20:50;97994.50;;;8.18;91.47
17635;BME280;8936;49.010;12.120;2023-04-08T04:23:17;97987.66;;;8.22;94.15
17635;BME280;8936;49.010;12.120;2023-04-08T04:25:43;97987.91;;;8.20;96.10
17635;BME280;8936;49.010;12.120;2023-04-08T04:28:09;98007.16;;;8.44;95.35
17635;BME280;8936;49.010;12.120;2023-04-08T04:30:36;97993.28;;;8.63;93.36
17635;BME280;8936;49.010;12.120;2023-04-08T04:33:02;97996.81;;;8.47;93.59
17635;BME280;8936;49.010;12.120;2023-04-08T04:35:30;97988.25;;;8.45;94.23
17635;BME280;8936;49.010;12.120;2023-04-08T04:37:56;97998.31;;;8.60;93.02
17635;BME280;8936;49.010;12.120;2023-04-08T04:40:23;98002.13;;;8.91;91.23
17635;BME280;8936;49.010;12.120;2023-04-08T04:42:49;98003.06;;;8.80;91.11
17635;BME280;8936;49.010;12.120;2023-04-08T04:45:15;98014.94;;;8.94;90.52
17635;BME280;8936;49.010;12.120;2023-04-08T04:47:42;98007.34;;;8.81;91.18
17635;BME280;8936;49.010;12.120;2023-04-08T04:50:08;98005.72;;;8.80;91.64
17635;BME280;8936;49.010;12.120;2023-04-08T04:52:36;98009.00;;;8.65;92.33
17635;BME280;8936;49.010;12.120;2023-04-08T04:55:03;98011.91;;;8.63;93.19
17635;BME280;8936;49.010;12.120;2023-04-08T04:57:29;98007.53;;;8.74;92.00
17635;BME280;8936;49.010;12.120;2023-04-08T04:59:56;98018.19;;;8.36;94.10
17635;BME280;8936;49.010;12.120;2023-04-08T05:02:22;98016.84;;;8.33;95.89
17635;BME280;8936;49.010;12.120;2023-04-08T05:04:48;98021.06;;;8.29;96.59
17635;BME280;8936;49.010;12.120;2023-04-08T05:07:17;98018.63;;;8.28;96.96
17635;BME280;8936;49.010;12.120;2023-04-08T05:09:45;98025.91;;;8.32;97.10
17635;BME280;8936;49.010;12.120;2023-04-08T05:12:11;98028.84;;;8.36;97.19
17635;BME280;8936;49.010;12.120;2023-04-08T05:14:37;98030.25;;;8.60;94.18
17635;BME280;8936;49.010;12.120;2023-04-08T05:17:05;98026.31;;;8.46;94.92
17635;BME280;8936;49.010;12.120;2023-04-08T05:19:31;98027.34;;;8.23;96.29
17635;BME280;8936;49.010;12.120;2023-04-08T05:21:58;98030.81;;;8.07;98.30
17635;BME280;8936;49.010;12.120;2023-04-08T05:24:24;98031.69;;;7.96;99.42
17635;BME280;8936;49.010;12.120;2023-04-08T05:26:52;98036.06;;;8.35;97.48
17635;BME280;8936;49.010;12.120;2023-04-08T05:29:18;98035.94;;;8.47;96.11
17635;BME280;8936;49.010;12.120;2023-04-08T05:31:46;98045.13;;;8.39;96.58
17635;BME280;8936;49.010;12.120;2023-04-08T05:34:14;98048.94;;;8.10;98.55
17635;BME280;8936;49.010;12.120;2023-04-08T05:36:46;98061.44;;;7.76;100.00
17635;BME280;8936;49.010;12.120;2023-04-08T05:39:15;98060.72;;;7.64;100.00
17635;BME280;8936;49.010;12.120;2023-04-08T05:41:42;98072.63;;;7.78;100.00
17635;BME280;8936;49.010;12.120;2023-04-08T05:44:10;98067.06;;;7.63;100.00
17635;BME280;8936;49.010;12.120;2023-04-08T05:46:36;98070.16;;;7.43;100.00
17635;BME280;8936;49.010;12.120;2023-04-08T05:49:02;98075.84;;;7.80;100.00
17635;BME280;8936;49.010;12.120;2023-04-08T05:51:29;98089.28;;;7.57;100.00
17635;BME280;8936;49.010;12.120;2023-04-08T05:53:55;98083.44;;;7.88;100.00
17635;BME280;8936;49.010;12.120;2023-04-08T05:56:21;98084.22;;;7.72;100.00
17635;BME280;8936;49.010;12.120;2023-04-08T05:58:48;98087.03;;;7.66;100.00
17635;BME280;8936;49.010;12.120;2023-04-08T06:01:15;98096.56;;;7.33;100.00
17635;BME280;8936;49.010;12.120;2023-04-08T06:03:42;98095.50;;;7.34;100.00
17635;BME280;8936;49.010;12.120;2023-04-08T06:06:08;98099.84;;;7.12;100.00
17635;BME280;8936;49.010;12.120;2023-04-08T06:08:35;98107.47;;;6.69;100.00
17635;BME280;8936;49.010;12.120;2023-04-08T06:11:02;98109.31;;;6.80;100.00
17635;BME280;8936;49.010;12.120;2023-04-08T06:13:29;98113.38;;;6.59;100.00
17635;BME280;8936;49.010;12.120;2023-04-08T06:15:55;98117.88;;;6.47;100.00
17635;BME280;8936;49.010;12.120;2023-04-08T06:18:23;98127.09;;;6.44;100.00
17635;BME280;8936;49.010;12.120;2023-04-08T06:20:50;98127.91;;;6.22;100.00
17635;BME280;8936;49.010;12.120;2023-04-08T06:23:16;98133.44;;;6.20;100.00
17635;BME280;8936;49.010;12.120;2023-04-08T06:25:42;98135.75;;;6.28;100.00
17635;BME280;8936;49.010;12.120;2023-04-08T06:28:08;98146.84;;;6.37;100.00
17635;BME280;8936;49.010;12.120;2023-04-08T06:30:35;98147.50;;;6.09;100.00
17635;BME280;8936;49.010;12.120;2023-04-08T06:33:01;98138.84;;;6.72;100.00
17635;BME280;8936;49.010;12.120;2023-04-08T06:35:29;98136.25;;;7.40;100.00
17635;BME280;8936;49.010;12.120;2023-04-08T06:37:55;98136.41;;;7.61;100.00
17635;BME280;8936;49.010;12.120;2023-04-08T06:40:22;98137.53;;;7.37;100.00
17635;BME280;8936;49.010;12.120;2023-04-08T06:42:48;98136.31;;;7.28;100.00
17635;BME280;8936;49.010;12.120;2023-04-08T06:45:14;98149.13;;;7.59;100.00
17635;BME280;8936;49.010;12.120;2023-04-08T06:47:41;98145.41;;;7.89;100.00
17635;BME280;8936;49.010;12.120;2023-04-08T06:50:07;98155.16;;;7.15;100.00
17635;BME280;8936;49.010;12.120;2023-04-08T06:52:35;98152.38;;;7.22;100.00
17635;BME280;8936;49.010;12.120;2023-04-08T06:55:02;98151.38;;;6.99;100.00
17635;BME280;8936;49.010;12.120;2023-04-08T06:57:28;98162.34;;;7.15;100.00
17635;BME280;8936;49.010;12.120;2023-04-08T06:59:55;98140.94;;;7.78;100.00
17635;BME280;8936;49.010;12.120;2023-04-08T07:02:21;98149.69;;;7.61;100.00
17635;BME280;8936;49.010;12.120;2023-04-08T07:04:48;98146.44;;;7.88;100.00
17635;BME280;8936;49.010;12.120;2023-04-08T07:07:14;98151.84;;;7.93;100.00
17635;BME280;8936;49.010;12.120;2023-04-08T07:09:42;98150.59;;;8.12;100.00
17635;BME280;8936;49.010;12.120;2023-04-08T07:12:10;98159.97;;;8.31;100.00
17635;BME280;8936;49.010;12.120;2023-04-08T07:14:36;98155.41;;;8.15;100.00
17635;BME280;8936;49.010;12.120;2023-04-08T07:17:02;98156.03;;;8.34;100.00
17635;BME280;8936;49.010;12.120;2023-04-08T07:19:29;98162.09;;;8.29;100.00
17635;BME280;8936;49.010;12.120;2023-04-08T07:21:56;98161.06;;;8.19;100.00
17635;BME280;8936;49.010;12.120;2023-04-08T07:24:22;98166.84;;;8.44;100.00
17635;BME280;8936;49.010;12.120;2023-04-08T07:26:50;98161.88;;;8.19;100.00
17635;BME280;8936;49.010;12.120;2023-04-08T07:29:16;98162.72;;;8.36;100.00
17635;BME280;8936;49.010;12.120;2023-04-08T07:31:43;98171.56;;;8.25;100.00
17635;BME280;8936;49.010;12.120;2023-04-08T07:34:09;98170.88;;;7.85;100.00
17635;BME280;8936;49.010;12.120;2023-04-08T07:36:36;98171.25;;;7.77;100.00
17635;BME280;8936;49.010;12.120;2023-04-08T07:39:02;98181.06;;;7.08;100.00
17635;BME280;8936;49.010;12.120;2023-04-08T07:41:29;98179.06;;;7.15;100.00
17635;BME280;8936;49.010;12.120;2023-04-08T07:43:56;98177.81;;;7.57;100.00
17635;BME280;8936;49.010;12.120;2023-04-08T07:46:23;98180.72;;;7.44;100.00
17635;BME280;8936;49.010;12.120;2023-04-08T07:48:49;98176.84;;;7.64;100.00
17635;BME280;8936;49.010;12.120;2023-04-08T07:51:15;98170.72;;;7.91;100.00
17635;BME280;8936;49.010;12.120;2023-04-08T07:53:42;98176.81;;;7.75;100.00
17635;BME280;8936;49.010;12.120;2023-04-08T07:56:12;98181.97;;;7.82;100.00
17635;BME280;8936;49.010;12.120;2023-04-08T07:58:38;98194.66;;;7.23;100.00
17635;BME280;8936;49.010;12.120;2023-04-08T08:01:14;98184.66;;;7.02;100.00
17635;BME280;8936;49.010;12.120;2023-04-08T08:03:40;98192.34;;;7.27;100.00
17635;BME280;8936;49.010;12.120;2023-04-08T08:06:07;98189.47;;;7.56;100.00
17635;BME280;8936;49.010;12.120;2023-04-08T08:08:33;98190.09;;;7.75;100.00
17635;BME280;8936;49.010;12.120;2023-04-08T08:11:00;98181.63;;;7.50;100.00
17635;BME280;8936;49.010;12.120;2023-04-08T08:13:26;98197.06;;;7.65;100.00
17635;BME280;8936;49.010;12.120;2023-04-08T08:15:53;98198.88;;;8.04;100.00
17635;BME280;8936;49.010;12.120;2023-04-08T08:18:21;98202.38;;;7.93;100.00
17635;BME280;8936;49.010;12.120;2023-04-08T08:20:47;98200.94;;;7.74;100.00
17635;BME280;8936;49.010;12.120;2023-04-08T08:23:14;98200.13;;;7.85;100.00
17635;BME280;8936;49.010;12.120;2023-04-08T08:25:40;98208.81;;;7.40;100.00
17635;BME280;8936;49.010;12.120;2023-04-08T08:28:06;98209.94;;;7.04;100.00
17635;BME280;8936;49.010;12.120;2023-04-08T08:30:33;98211.44;;;7.00;100.00
17635;BME280;8936;49.010;12.120;2023-04-08T08:32:59;98216.63;;;6.95;100.00
17635;BME280;8936;49.010;12.120;2023-04-08T08:35:27;98210.75;;;7.05;100.00
17635;BME280;8936;49.010;12.120;2023-04-08T08:37:53;98205.88;;;7.14;100.00
17635;BME280;8936;49.010;12.120;2023-04-08T08:40:19;98219.41;;;6.89;100.00
17635;BME280;8936;49.010;12.120;2023-04-08T08:42:48;98216.50;;;7.14;100.00
17635;BME280;8936;49.010;12.120;2023-04-08T08:45:15;98216.72;;;7.12;100.00
17635;BME280;8936;49.010;12.120;2023-04-08T08:47:42;98223.81;;;7.46;100.00
17635;BME280;8936;49.010;12.120;2023-04-08T08:50:08;98217.63;;;7.69;100.00
17635;BME280;8936;49.010;12.120;2023-04-08T08:52:36;98218.94;;;7.83;100.00
17635;BME280;8936;49.010;12.120;2023-04-08T08:55:02;98217.16;;;8.17;100.00
17635;BME280;8936;49.010;12.120;2023-04-08T08:57:29;98218.13;;;8.11;100.00
17635;BME280;8936;49.010;12.120;2023-04-08T08:59:55;98228.13;;;8.32;100.00
17635;BME280;8936;49.010;12.120;2023-04-08T09:02:22;98219.09;;;8.05;100.00
17635;BME280;8936;49.010;12.120;2023-04-08T09:04:54;98221.59;;;7.95;100.00
17635;BME280;8936;49.010;12.120;2023-04-08T09:07:23;98231.59;;;8.21;100.00
17635;BME280;8936;49.010;12.120;2023-04-08T09:09:51;98232.50;;;8.27;100.00
17635;BME280;8936;49.010;12.120;2023-04-08T09:12:18;98232.97;;;8.07;100.00
17635;BME280;8936;49.010;12.120;2023-04-08T09:14:44;98226.78;;;7.90;100.00
17635;BME280;8936;49.010;12.120;2023-04-08T09:17:12;98234.41;;;7.98;100.00
17635;BME280;8936;49.010;12.120;2023-04-08T09:19:38;98235.97;;;8.27;100.00
17635;BME280;8936;49.010;12.120;2023-04-08T09:22:05;98232.19;;;8.23;100.00
17635;BME280;8936;49.010;12.120;2023-04-08T09:24:32;98235.97;;;8.27;100.00
17635;BME280;8936;49.010;12.120;2023-04-08T09:27:00;98243.84;;;8.05;100.00
17635;BME280;8936;49.010;12.120;2023-04-08T09:29:27;98239.25;;;8.29;100.00
17635;BME280;8936;49.010;12.120;2023-04-08T09:31:53;98239.31;;;8.34;100.00
17635;BME280;8936;49.010;12.120;2023-04-08T09:34:20;98240.28;;;8.45;100.00
17635;BME280;8936;49.010;12.120;2023-04-08T09:36:47;98239.41;;;8.56;100.00
17635;BME280;8936;49.010;12.120;2023-04-08T09:39:14;98242.81;;;8.68;100.00
17635;BME280;8936;49.010;12.120;2023-04-08T09:41:41;98241.19;;;8.50;100.00
17635;BME280;8936;49.010;12.120;2023-04-08T09:44:09;98242.69;;;8.30;100.00
17635;BME280;8936;49.010;12.120;2023-04-08T09:46:38;98240.06;;;8.18;100.00
17635;BME280;8936;49.010;12.120;2023-04-08T09:49:06;98243.88;;;8.22;100.00
17635;BME280;8936;49.010;12.120;2023-04-08T09:51:35;98242.72;;;8.18;100.00
17635;BME280;8936;49.010;12.120;2023-04-08T09:54:05;98243.69;;;7.84;100.00
17635;BME280;8936;49.010;12.120;2023-04-08T09:56:38;98250.44;;;7.75;100.00
17635;BME280;8936;49.010;12.120;2023-04-08T09:59:10;98257.06;;;7.49;100.00
17635;BME280;8936;49.010;12.120;2023-04-08T10:01:39;98250.63;;;7.45;100.00
17635;BME280;8936;49.010;12.120;2023-04-08T10:04:09;98253.06;;;7.35;100.00
17635;BME280;8936;49.010;12.120;2023-04-08T10:06:37;98258.88;;;7.20;100.00
17635;BME280;8936;49.010;12.120;2023-04-08T10:09:05;98255.56;;;7.53;100.00
17635;BME280;8936;49.010;12.120;2023-04-08T10:11:31;98247.53;;;7.76;100.00
17635;BME280;8936;49.010;12.120;2023-04-08T10:13:58;98246.47;;;7.89;100.00
17635;BME280;8936;49.010;12.120;2023-04-08T10:16:27;98254.44;;;7.89;100.00
17635;BME280;8936;49.010;12.120;2023-04-08T10:18:54;98252.19;;;7.69;100.00
17635;BME280;8936;49.010;12.120;2023-04-08T10:21:31;98255.59;;;7.41;100.00
17635;BME280;8936;49.010;12.120;2023-04-08T10:23:57;98256.91;;;7.16;100.00
17635;BME280;8936;49.010;12.120;2023-04-08T10:26:32;98256.16;;;7.43;100.00
17635;BME280;8936;49.010;12.120;2023-04-08T10:31:41;98266.66;;;7.50;100.00
17635;BME280;8936;49.010;12.120;2023-04-08T10:34:14;98266.06;;;7.59;100.00
17635;BME280;8936;49.010;12.120;2023-04-08T10:36:41;98267.09;;;7.58;100.00
17635;BME280;8936;49.010;12.120;2023-04-08T10:39:07;98271.81;;;7.68;100.00
17635;BME280;8936;49.010;12.120;2023-04-08T10:41:34;98264.00;;;7.90;100.00
17635;BME280;8936;49.010;12.120;2023-04-08T10:44:02;98263.50;;;8.04;100.00
17635;BME280;8936;49.010;12.120;2023-04-08T10:46:28;98270.44;;;8.05;100.00
17635;BME280;8936;49.010;12.120;2023-04-08T10:49:03;98268.34;;;8.07;100.00
17635;BME280;8936;49.010;12.120;2023-04-08T10:51:29;98263.25;;;8.06;100.00
17635;BME280;8936;49.010;12.120;2023-04-08T10:54:03;98263.66;;;7.98;100.00
17635;BME280;8936;49.010;12.120;2023-04-08T10:56:30;98262.50;;;7.94;100.00
17635;BME280;8936;49.010;12.120;2023-04-08T10:58:57;98264.25;;;8.17;100.00
17635;BME280;8936;49.010;12.120;2023-04-08T11:01:24;98263.50;;;8.33;100.00
17635;BME280;8936;49.010;12.120;2023-04-08T11:03:51;98261.06;;;8.03;100.00
17635;BME280;8936;49.010;12.120;2023-04-08T11:06:18;98265.03;;;8.00;100.00
17635;BME280;8936;49.010;12.120;2023-04-08T11:08:45;98265.44;;;8.09;100.00
17635;BME280;8936;49.010;12.120;2023-04-08T11:11:11;98256.47;;;7.98;100.00
17635;BME280;8936;49.010;12.120;2023-04-08T11:13:41;98255.91;;;7.96;100.00
17635;BME280;8936;49.010;12.120;2023-04-08T11:16:07;98268.72;;;7.99;100.00
17635;BME280;8936;49.010;12.120;2023-04-08T11:18:34;98253.28;;;8.13;100.00
17635;BME280;8936;49.010;12.120;2023-04-08T11:21:00;98258.75;;;8.35;100.00
17635;BME280;8936;49.010;12.120;2023-04-08T11:23:28;98258.13;;;8.44;100.00
17635;BME280;8936;49.010;12.120;2023-04-08T11:25:54;98265.47;;;8.37;100.00
17635;BME280;8936;49.010;12.120;2023-04-08T11:28:21;98261.66;;;8.33;100.00
17635;BME280;8936;49.010;12.120;2023-04-08T11:30:47;98264.41;;;8.10;100.00
17635;BME280;8936;49.010;12.120;2023-04-08T11:33:14;98265.44;;;8.09;100.00
17635;BME280;8936;49.010;12.120;2023-04-08T11:35:40;98262.44;;;8.05;100.00
17635;BME280;8936;49.010;12.120;2023-04-08T11:38:07;98260.59;;;8.06;100.00
17635;BME280;8936;49.010;12.120;2023-04-08T11:40:35;98274.56;;;7.85;100.00
17635;BME280;8936;49.010;12.120;2023-04-08T11:43:07;98262.69;;;8.04;100.00
17635;BME280;8936;49.010;12.120;2023-04-08T11:45:36;98266.72;;;8.06;100.00
17635;BME280;8936;49.010;12.120;2023-04-08T11:48:07;98257.59;;;8.02;100.00
17635;BME280;8936;49.010;12.120;2023-04-08T11:50:33;98268.03;;;7.92;100.00
17635;BME280;8936;49.010;12.120;2023-04-08T11:53:00;98268.16;;;7.97;100.00
17635;BME280;8936;49.010;12.120;2023-04-08T11:55:26;98267.53;;;8.07;100.00
17635;BME280;8936;49.010;12.120;2023-04-08T11:57:55;98269.34;;;8.18;100.00
17635;BME280;8936;49.010;12.120;2023-04-08T12:00:22;98265.69;;;8.36;100.00
17635;BME280;8936;49.010;12.120;2023-04-08T12:02:49;98268.44;;;8.41;100.00
17635;BME280;8936;49.010;12.120;2023-04-08T12:05:16;98274.09;;;8.44;100.00
17635;BME280;8936;49.010;12.120;2023-04-08T12:07:43;98272.97;;;8.40;100.00
17635;BME280;8936;49.010;12.120;2023-04-08T12:10:10;98276.03;;;8.32;100.00
17635;BME280;8936;49.010;12.120;2023-04-08T12:12:36;98284.22;;;8.31;100.00
17635;BME280;8936;49.010;12.120;2023-04-08T12:15:05;98280.66;;;8.25;100.00
17635;BME280;8936;49.010;12.120;2023-04-08T12:17:32;98281.66;;;8.36;100.00
17635;BME280;8936;49.010;12.120;2023-04-08T12:19:58;98282.50;;;8.25;100.00
17635;BME280;8936;49.010;12.120;2023-04-08T12:22:25;98289.47;;;8.14;100.00
17635;BME280;8936;49.010;12.120;2023-04-08T12:24:52;98280.66;;;8.25;100.00
17635;BME280;8936;49.010;12.120;2023-04-08T12:27:18;98280.44;;;8.15;100.00
17635;BME280;8936;49.010;12.120;2023-04-08T12:29:44;98285.00;;;8.03;100.00
17635;BME280;8936;49.010;12.120;2023-04-08T12:32:12;98289.19;;;7.99;100.00
17635;BME280;8936;49.010;12.120;2023-04-08T12:34:39;98292.66;;;7.99;100.00
17635;BME280;8936;49.010;12.120;2023-04-08T12:37:05;98281.31;;;8.04;100.00
17635;BME280;8936;49.010;12.120;2023-04-08T12:39:31;98290.41;;;8.08;100.00
17635;BME280;8936;49.010;12.120;2023-04-08T12:41:58;98293.19;;;8.13;100.00
17635;BME280;8936;49.010;12.120;2023-04-08T12:44:24;98288.25;;;8.33;100.00
17635;BME280;8936;49.010;12.120;2023-04-08T12:46:50;98287.78;;;8.36;100.00
17635;BME280;8936;49.010;12.120;2023-04-08T12:49:18;98282.78;;;8.40;100.00
17635;BME280;8936;49.010;12.120;2023-04-08T12:51:44;98291.50;;;8.35;100.00
17635;BME280;8936;49.010;12.120;2023-04-08T12:54:11;98291.19;;;8.20;100.00
17635;BME280;8936;49.010;12.120;2023-04-08T12:56:37;98287.00;;;8.24;100.00
17635;BME280;8936;49.010;12.120;2023-04-08T12:59:04;98281.13;;;8.22;100.00
17635;BME280;8936;49.010;12.120;2023-04-08T13:01:30;98290.63;;;8.18;100.00
17635;BME280;8936;49.010;12.120;2023-04-08T13:03:57;98285.84;;;8.20;100.00